createdAt,value
2018-05-06T00:01:05.702Z,11.8
2018-05-06T00:07:00.639Z,10.83
2018-05-06T00:12:55.655Z,14.03
2018-05-06T00:18:50.652Z,11.81
2018-05-06T00:24:45.659Z,12.5
2018-05-06T00:30:40.725Z,18.51
2018-05-06T00:36:35.662Z,14.06
2018-05-06T00:42:30.732Z,13.1
2018-05-06T00:48:25.704Z,14.65
2018-05-06T00:54:20.706Z,13.87
2018-05-06T01:00:15.663Z,12.23
2018-05-06T01:06:10.733Z,14.08
2018-05-06T01:12:05.708Z,12.88
2018-05-06T01:18:00.678Z,16.77
2018-05-06T01:23:55.698Z,14.77
2018-05-06T01:29:50.688Z,14.04
2018-05-06T01:35:45.691Z,12.56
2018-05-06T01:41:40.723Z,13.94
2018-05-06T01:47:35.715Z,15.43
2018-05-06T01:53:30.751Z,12.27
2018-05-06T01:59:25.732Z,12.5
2018-05-06T02:05:20.725Z,12.66
2018-05-06T02:11:15.768Z,15.05
2018-05-06T02:17:10.737Z,16.04
2018-05-06T02:23:05.744Z,14.46
2018-05-06T02:29:00.744Z,11.82
2018-05-06T02:34:55.730Z,14.03
2018-05-06T02:40:50.746Z,14.46
2018-05-06T02:46:45.766Z,11.84
2018-05-06T02:52:40.798Z,16.66
2018-05-06T02:58:35.760Z,16.95
2018-05-06T03:04:30.763Z,13.74
2018-05-06T03:10:25.773Z,15.66
2018-05-06T03:16:20.795Z,15.35
2018-05-06T03:22:15.769Z,13.91
2018-05-06T03:28:10.842Z,19.44
2018-05-06T03:34:05.759Z,15.52
2018-05-06T03:40:00.795Z,16.44
2018-05-06T03:45:55.794Z,21.77
2018-05-06T03:51:50.788Z,19.29
2018-05-06T03:57:45.849Z,14.12
2018-05-06T04:03:40.805Z,14.8
2018-05-06T04:09:35.797Z,14.85
2018-05-06T04:15:30.778Z,12.97
2018-05-06T04:21:25.821Z,15.99
2018-05-06T04:27:20.799Z,16.97
2018-05-06T04:33:15.793Z,13.93
2018-05-06T04:39:10.854Z,16.3
2018-05-06T04:45:05.812Z,15.77
2018-05-06T04:51:00.864Z,15.37
2018-05-06T04:56:55.882Z,13.2
2018-05-06T05:02:50.850Z,18.47
2018-05-06T05:08:45.863Z,15
2018-05-06T05:14:40.834Z,16.58
2018-05-06T05:20:35.826Z,18.77
2018-05-06T05:26:30.878Z,15.97
2018-05-06T05:32:25.857Z,16.78
2018-05-06T05:38:20.882Z,13.94
2018-05-06T05:44:15.888Z,17.64
2018-05-06T05:50:10.879Z,15.86
2018-05-06T05:56:05.888Z,17.18
2018-05-06T06:02:00.876Z,16.76
2018-05-06T06:07:55.901Z,16.78
2018-05-06T06:13:50.859Z,13.84
2018-05-06T06:19:45.861Z,15.63
2018-05-06T06:25:40.872Z,16.63
2018-05-06T06:31:35.946Z,15.13
2018-05-06T06:37:30.915Z,19.13
2018-05-06T06:43:25.912Z,15.26
2018-05-06T06:49:20.949Z,20.86
2018-05-06T06:55:15.931Z,20.71
2018-05-06T07:01:10.898Z,19.6
2018-05-06T07:07:05.937Z,22.07
2018-05-06T07:13:00.936Z,41.92
2018-05-06T07:18:55.945Z,38.36
2018-05-06T07:24:50.909Z,36.51
2018-05-06T07:30:45.925Z,32.47
2018-05-06T07:36:40.932Z,41.97
2018-05-06T07:42:35.952Z,40.98
2018-05-06T07:48:30.975Z,39.17
2018-05-06T07:54:25.966Z,32.51
2018-05-06T08:00:20.937Z,28.96
2018-05-06T08:06:15.942Z,28.91
2018-05-06T08:12:10.951Z,26.1
2018-05-06T08:18:06.008Z,20.72
2018-05-06T08:24:00.984Z,22.32
2018-05-06T08:29:55.959Z,16.1
2018-05-06T08:35:51.007Z,17.11
2018-05-06T08:41:45.977Z,23.4
2018-05-06T08:47:40.999Z,21.13
2018-05-06T08:53:35.967Z,23.4
2018-05-06T08:59:31.158Z,24.19
2018-05-06T09:05:25.977Z,26
2018-05-06T09:11:21.061Z,22.87
2018-05-06T09:17:16.036Z,21.25
2018-05-06T09:23:11.035Z,14.37
2018-05-06T09:29:06.006Z,13.4
2018-05-06T09:35:01.021Z,24.51
2018-05-06T09:40:56.037Z,14.98
2018-05-06T09:46:51.020Z,17.27
2018-05-06T09:52:46.089Z,16.15
2018-05-06T09:58:41.049Z,17.22
2018-05-06T10:04:36.039Z,11.6
2018-05-06T10:10:31.063Z,10.58
2018-05-06T10:16:26.073Z,9.21
2018-05-06T10:22:21.148Z,9.11
2018-05-06T10:28:16.067Z,10.59
2018-05-06T10:34:11.046Z,9.99
2018-05-06T10:40:06.100Z,9.2
2018-05-06T10:46:01.077Z,11.04
2018-05-06T10:51:56.084Z,11.5
2018-05-06T10:57:51.187Z,8.29
2018-05-06T11:03:46.149Z,9.36
2018-05-06T11:09:41.062Z,12.07
2018-05-06T11:15:36.090Z,10.74
2018-05-06T11:21:31.261Z,14.86
2018-05-06T11:27:26.116Z,12.43
2018-05-06T11:33:21.194Z,13.41
2018-05-06T11:39:16.143Z,15.38
2018-05-06T11:45:11.113Z,14.15
2018-05-06T11:51:06.167Z,14.58
2018-05-06T11:57:01.114Z,10.47
2018-05-06T12:02:56.147Z,12.49
2018-05-06T12:08:51.135Z,12.32
2018-05-06T12:14:46.145Z,13.51
2018-05-06T12:20:41.160Z,10.83
2018-05-06T12:26:36.157Z,13.43
2018-05-06T12:32:31.165Z,12.92
2018-05-06T12:38:26.136Z,11.72
2018-05-06T12:44:21.198Z,12.93
2018-05-06T12:50:16.193Z,11.45
2018-05-06T12:56:11.160Z,12.26
2018-05-06T13:02:06.192Z,12.27
2018-05-06T13:08:01.189Z,13.04
2018-05-06T13:13:56.166Z,10.32
2018-05-06T13:19:51.198Z,12.73
2018-05-06T13:25:46.212Z,16.97
2018-05-06T13:31:41.218Z,10.8
2018-05-06T13:37:36.199Z,14.74
2018-05-06T13:43:31.237Z,15.82
2018-05-06T13:49:26.232Z,13.67
2018-05-06T13:55:21.211Z,14.14
2018-05-06T14:01:16.200Z,14.9
2018-05-06T14:07:11.220Z,15.51
2018-05-06T14:13:06.243Z,17.14
2018-05-06T14:19:01.236Z,15.49
2018-05-06T14:24:56.242Z,14.78
2018-05-06T14:30:51.218Z,14.47
2018-05-06T14:36:46.220Z,14.88
2018-05-06T14:42:41.248Z,13.92
2018-05-06T14:48:36.256Z,14.11
2018-05-06T14:54:31.231Z,12.88
2018-05-06T15:00:26.235Z,16.62
2018-05-06T15:06:21.244Z,16.53
2018-05-06T15:12:16.295Z,12.38
2018-05-06T15:18:11.245Z,16.5
2018-05-06T15:24:06.261Z,14.92
2018-05-06T15:30:01.291Z,11.96
2018-05-06T15:35:56.341Z,13.89
2018-05-06T15:41:51.356Z,16.8
2018-05-06T15:47:46.365Z,14.22
2018-05-06T15:53:41.293Z,13.37
2018-05-06T15:59:36.296Z,14.07
2018-05-06T16:05:31.291Z,13.39
2018-05-06T16:11:26.314Z,14.98
2018-05-06T16:17:21.289Z,16.48
2018-05-06T16:23:16.295Z,14.94
2018-05-06T16:29:11.313Z,13.66
2018-05-06T16:35:06.346Z,15.81
2018-05-06T16:41:01.344Z,15.4
2018-05-06T16:46:56.292Z,16.45
2018-05-06T16:52:51.332Z,19.4
2018-05-06T16:58:46.373Z,18.38
2018-05-06T17:04:41.404Z,19.55
2018-05-06T17:10:36.348Z,19.83
2018-05-06T17:16:31.364Z,19.55
2018-05-06T17:22:26.368Z,22.25
2018-05-06T17:28:21.367Z,20.38
2018-05-06T17:34:16.418Z,18.53
2018-05-06T17:40:11.364Z,20.43
2018-05-06T17:46:06.363Z,19.42
2018-05-06T17:52:01.386Z,23.11
2018-05-06T17:57:56.393Z,22.32
2018-05-06T18:03:51.496Z,19.74
2018-05-06T18:09:46.422Z,19.57
2018-05-06T18:15:41.419Z,14.59
2018-05-06T18:21:36.401Z,18.14
2018-05-06T18:27:31.483Z,18.16
2018-05-06T18:33:26.435Z,18.7
2018-05-06T18:39:21.429Z,21.85
2018-05-06T18:45:16.393Z,20.61
2018-05-06T18:51:11.416Z,17.63
2018-05-06T18:57:06.460Z,22.37
2018-05-06T19:03:01.460Z,17.82
2018-05-06T19:08:56.443Z,20.63
2018-05-06T19:14:51.418Z,25.69
2018-05-06T19:20:46.429Z,20.23
2018-05-06T19:26:41.500Z,21
2018-05-06T19:32:36.508Z,17.5
2018-05-06T19:38:31.431Z,22.11
2018-05-06T19:44:26.475Z,21.05
2018-05-06T19:50:21.468Z,25.5
2018-05-06T19:56:16.465Z,23.17
2018-05-06T20:02:11.438Z,20.45
2018-05-06T20:08:06.445Z,21.66
2018-05-06T20:14:01.460Z,22.54
2018-05-06T20:19:56.506Z,21.56
2018-05-06T20:25:51.555Z,24.68
2018-05-06T20:31:46.469Z,26.43
2018-05-06T20:37:41.464Z,25.59
2018-05-06T20:43:36.538Z,23.58
2018-05-06T20:49:31.471Z,23.13
2018-05-06T20:55:26.497Z,26.43
2018-05-06T21:01:21.472Z,20.65
2018-05-06T21:07:16.511Z,27.38
2018-05-06T21:13:11.549Z,29.17
2018-05-06T21:19:06.498Z,23.26
2018-05-06T21:25:01.581Z,22.74
2018-05-06T21:30:56.540Z,26.01
2018-05-06T21:36:51.514Z,24.81
2018-05-06T21:42:46.513Z,26.32
2018-05-06T21:48:41.515Z,24.01
2018-05-06T21:54:36.734Z,24.39
2018-05-06T22:00:31.519Z,21.56
2018-05-06T22:06:26.542Z,25.25
2018-05-06T22:12:21.533Z,25.32
2018-05-06T22:18:16.549Z,27.04
2018-05-06T22:24:11.569Z,24.01
2018-05-06T22:30:06.553Z,23.81
2018-05-06T22:36:01.600Z,26.66
2018-05-06T22:41:56.550Z,23.85
2018-05-06T22:47:51.552Z,28.9
2018-05-06T22:53:46.603Z,26.22
2018-05-06T22:59:41.618Z,25.27
2018-05-06T23:05:36.676Z,23.26
2018-05-06T23:11:31.565Z,24.94
2018-05-06T23:17:26.596Z,24.47
2018-05-06T23:23:21.603Z,25.49
2018-05-06T23:29:16.653Z,28.17
2018-05-06T23:35:11.608Z,27.79
2018-05-06T23:41:06.626Z,24.46
2018-05-06T23:47:01.622Z,25.56
2018-05-06T23:52:56.616Z,28.02
2018-05-06T23:58:51.622Z,28.62
